Time;durP1;ratioP1;P1;durP2;ratioP2;P2;SDS_P1;SDS_P2;PMS_P1;PMS_P2;Temp;Humidity;BMP_temperature;BMP_pressure;BME280_temperature;BME280_humidity;BME280_pressure;Samples;Min_cycle;Max_cycle;Signal;HPM_P1;HPM_P2
2022/04/06 00:00:43;;;;;;;7.40;5.47;;;;;;;9.37;100.00;99281.72;5207022;28;20295;-77
2022/04/06 00:03:14;;;;;;;8.18;5.13;;;;;;;9.28;100.00;99287.38;5206283;28;20268;-78
2022/04/06 00:05:44;;;;;;;8.48;5.10;;;;;;;9.33;100.00;99287.16;5206076;28;20082;-77
2022/04/06 00:08:14;;;;;;;9.27;5.82;;;;;;;9.24;100.00;99285.00;5205252;28;20029;-77
2022/04/06 00:10:45;;;;;;;11.40;6.63;;;;;;;9.25;100.00;99289.31;5206422;28;20419;-78
2022/04/06 00:13:15;;;;;;;9.77;5.38;;;;;;;9.22;100.00;99289.47;5206992;28;20056;-78
2022/04/06 00:15:45;;;;;;;10.38;6.10;;;;;;;9.19;100.00;99293.09;5207895;28;20025;-78
2022/04/06 00:18:16;;;;;;;10.68;6.18;;;;;;;9.26;100.00;99288.38;5205294;28;20566;-78
2022/04/06 00:20:47;;;;;;;10.60;6.07;;;;;;;9.28;100.00;99289.16;5205244;28;20491;-78
2022/04/06 00:23:17;;;;;;;11.35;6.32;;;;;;;9.27;100.00;99290.06;5205344;28;20071;-77
2022/04/06 00:25:48;;;;;;;12.23;8.45;;;;;;;9.21;100.00;99280.81;5205108;28;20017;-78
2022/04/06 00:28:18;;;;;;;12.18;7.38;;;;;;;9.18;100.00;99277.50;5190718;28;20162;-78
2022/04/06 00:30:48;;;;;;;18.08;11.70;;;;;;;9.14;100.00;99268.16;5202418;28;20105;-78
2022/04/06 00:33:18;;;;;;;14.82;9.40;;;;;;;9.07;100.00;99272.00;5204455;28;20037;-77
2022/04/06 00:35:50;;;;;;;15.48;9.70;;;;;;;9.08;100.00;99262.44;5205157;28;20025;-78
2022/04/06 00:38:21;;;;;;;15.73;10.98;;;;;;;9.11;100.00;99270.94;5204420;28;20523;-78
2022/04/06 00:40:51;;;;;;;16.00;10.60;;;;;;;9.20;100.00;99273.06;5203162;28;20037;-78
2022/04/06 00:43:21;;;;;;;15.80;9.65;;;;;;;9.13;100.00;99273.44;5204114;28;20021;-78
2022/04/06 00:45:51;;;;;;;14.32;9.45;;;;;;;9.07;100.00;99265.94;5205430;28;20190;-77
2022/04/06 00:48:22;;;;;;;14.75;9.32;;;;;;;9.06;100.00;99264.25;5203831;28;20045;-78
2022/04/06 00:50:53;;;;;;;18.33;10.52;;;;;;;9.07;100.00;99261.56;5203221;28;20044;-78
2022/04/06 00:53:24;;;;;;;16.50;11.40;;;;;;;9.10;100.00;99260.56;5203937;28;20067;-77
2022/04/06 00:55:54;;;;;;;20.63;12.13;;;;;;;9.16;100.00;99266.31;5204370;28;20025;-78
2022/04/06 00:58:25;;;;;;;20.20;12.50;;;;;;;9.20;100.00;99260.03;5209075;28;20029;-78
2022/04/06 01:00:55;;;;;;;18.73;13.05;;;;;;;9.27;100.00;99267.47;5208119;28;20037;-78
2022/04/06 01:03:26;;;;;;;21.98;12.55;;;;;;;9.35;100.00;99261.84;5208528;28;20036;-78
2022/04/06 01:05:56;;;;;;;20.23;13.60;;;;;;;9.36;100.00;99263.53;5208669;28;20130;-78
2022/04/06 01:08:27;;;;;;;15.55;9.45;;;;;;;9.41;100.00;99261.53;5208354;28;20037;-77
2022/04/06 01:10:58;;;;;;;16.75;10.07;;;;;;;9.45;100.00;99263.09;5208466;28;20056;-78
2022/04/06 01:13:29;;;;;;;13.40;7.97;;;;;;;9.47;100.00;99269.06;5207692;28;20468;-78
2022/04/06 01:16:00;;;;;;;13.43;8.60;;;;;;;9.47;100.00;99267.28;5210658;28;20025;-78
2022/04/06 01:18:32;;;;;;;10.60;7.72;;;;;;;9.42;100.00;99258.84;5208878;28;20025;-77
2022/04/06 01:21:03;;;;;;;16.25;8.70;;;;;;;9.42;100.00;99258.84;5207652;28;20553;-77
2022/04/06 01:23:33;;;;;;;11.15;7.35;;;;;;;9.35;100.00;99262.69;5208982;28;20033;-77
2022/04/06 01:26:04;;;;;;;15.02;8.32;;;;;;;9.36;100.00;99267.00;5208127;28;20085;-78
2022/04/06 01:28:34;;;;;;;13.45;6.90;;;;;;;9.34;100.00;99270.59;5208100;28;20434;-78
2022/04/06 01:31:05;;;;;;;16.45;7.38;;;;;;;9.26;100.00;99276.19;5207427;28;20148;-78
2022/04/06 01:33:36;;;;;;;12.85;7.15;;;;;;;9.29;100.00;99268.22;5207681;28;20044;-77
2022/04/06 01:36:07;;;;;;;11.77;8.73;;;;;;;9.19;100.00;99268.78;5206232;28;20025;-78
2022/04/06 01:38:37;;;;;;;15.18;9.00;;;;;;;9.28;100.00;99274.34;5207146;28;20033;-78
2022/04/06 01:41:08;;;;;;;11.77;7.28;;;;;;;9.21;100.00;99270.38;5206130;28;20037;-78
2022/04/06 01:43:38;;;;;;;13.18;7.68;;;;;;;9.21;100.00;99274.75;5207321;28;20473;-78
2022/04/06 01:46:08;;;;;;;11.52;6.72;;;;;;;9.26;100.00;99272.75;5208436;28;20025;-77
2022/04/06 01:52:12;;;;;;;13.93;6.95;;;;;;;9.25;100.00;99278.88;5207190;28;20116;-77
2022/04/06 01:54:18;;;;;;;14.98;7.60;;;;;;;9.21;100.00;99279.97;5209326;28;20561;-78
2022/04/06 01:56:48;;;;;;;13.63;7.80;;;;;;;9.18;100.00;99280.13;5208050;28;20026;-78
2022/04/06 01:59:18;;;;;;;16.00;9.60;;;;;;;9.28;100.00;99276.97;5208175;28;20026;-78
2022/04/06 02:01:52;;;;;;;16.88;11.10;;;;;;;9.29;100.00;99265.63;5206991;28;20025;-78
2022/04/06 02:04:22;;;;;;;20.55;11.25;;;;;;;9.31;100.00;99263.75;5207260;28;20041;-79
2022/04/06 02:06:53;;;;;;;20.65;13.18;;;;;;;9.28;100.00;99265.72;5210574;28;20025;-78
2022/04/06 02:09:24;;;;;;;19.75;13.32;;;;;;;9.24;100.00;99262.41;5207198;28;20033;-78
2022/04/06 02:11:55;;;;;;;31.65;20.70;;;;;;;9.28;100.00;99265.72;5209298;28;20029;-78
2022/04/06 02:14:26;;;;;;;27.38;15.38;;;;;;;9.23;100.00;99262.47;5213384;28;20304;-77
2022/04/06 02:16:57;;;;;;;24.58;13.98;;;;;;;9.15;100.00;99268.06;5212250;28;20033;-77
2022/04/06 02:19:27;;;;;;;21.48;13.15;;;;;;;9.14;100.00;99260.34;5216379;28;20029;-78
2022/04/06 02:21:57;;;;;;;22.90;13.87;;;;;;;9.16;100.00;99261.13;5215791;28;20084;-78
2022/04/06 02:24:27;;;;;;;26.60;13.93;;;;;;;9.18;100.00;99257.50;5216166;28;20304;-78
2022/04/06 02:26:58;;;;;;;26.92;14.23;;;;;;;9.16;100.00;99255.91;5216087;28;20026;-78
2022/04/06 02:29:28;;;;;;;24.70;14.23;;;;;;;9.18;100.00;99259.28;5216343;28;20032;-77
2022/04/06 02:31:58;;;;;;;23.88;15.07;;;;;;;9.21;100.00;99254.75;5215494;28;20108;-77
2022/04/06 02:34:29;;;;;;;26.92;16.27;;;;;;;9.11;100.00;99257.06;5216017;28;20048;-77
2022/04/06 02:36:59;;;;;;;26.08;15.15;;;;;;;9.19;100.00;99253.13;5215103;28;20038;-78
2022/04/06 02:39:30;;;;;;;33.22;20.13;;;;;;;9.26;100.00;99252.75;5215332;28;20449;-77
2022/04/06 02:42:00;;;;;;;22.83;15.07;;;;;;;9.22;100.00;99247.75;5215670;28;20036;-77
2022/04/06 02:44:31;;;;;;;26.52;15.82;;;;;;;9.19;100.00;99248.78;5217052;28;20835;-77
2022/04/06 02:47:01;;;;;;;27.02;15.45;;;;;;;9.13;100.00;99245.63;5210989;28;20586;-78
2022/04/06 02:49:32;;;;;;;30.77;15.50;;;;;;;9.31;100.00;99242.09;5208094;28;20113;-78
2022/04/06 02:52:03;;;;;;;31.95;16.75;;;;;;;9.27;100.00;99243.13;5208297;28;20033;-78
2022/04/06 02:54:33;;;;;;;30.95;16.23;;;;;;;9.29;100.00;99236.94;5208658;28;20068;-77
2022/04/06 02:57:04;;;;;;;31.60;16.55;;;;;;;9.30;100.00;99235.19;5208072;28;20065;-78
2022/04/06 02:59:34;;;;;;;26.92;15.63;;;;;;;9.22;100.00;99238.19;5209337;28;20310;-78
2022/04/06 03:02:04;;;;;;;30.67;16.75;;;;;;;9.30;100.00;99233.41;5207909;28;20503;-79
2022/04/06 03:04:35;;;;;;;29.95;16.52;;;;;;;9.20;100.00;99233.97;5209169;28;20055;-78
2022/04/06 03:07:05;;;;;;;32.97;17.98;;;;;;;9.19;100.00;99229.69;5209037;28;20017;-78
2022/04/06 03:09:35;;;;;;;35.67;18.27;;;;;;;9.19;100.00;99237.50;5208966;28;20103;-77
2022/04/06 03:12:07;;;;;;;32.27;18.37;;;;;;;9.18;100.00;99228.00;5208044;28;20029;-77
2022/04/06 03:14:37;;;;;;;29.13;18.50;;;;;;;9.18;100.00;99228.81;5210156;28;20857;-79
2022/04/06 03:17:07;;;;;;;33.25;19.92;;;;;;;9.18;100.00;99228.00;5208082;28;20053;-78
2022/04/06 03:19:38;;;;;;;37.15;21.20;;;;;;;9.29;100.00;99230.91;5206713;28;20021;-77
2022/04/06 03:22:08;;;;;;;40.17;21.48;;;;;;;9.25;100.00;99226.75;5206393;28;20021;-77
2022/04/06 03:24:38;;;;;;;34.13;21.67;;;;;;;9.25;100.00;99216.31;5207910;28;20025;-77
2022/04/06 03:27:08;;;;;;;35.55;22.58;;;;;;;9.24;100.00;99217.25;5207493;28;20502;-77
2022/04/06 03:29:42;;;;;;;40.67;23.45;;;;;;;9.23;100.00;99210.34;5207192;28;20471;-77
2022/04/06 03:32:12;;;;;;;43.35;24.67;;;;;;;9.32;100.00;99215.91;5202421;28;20030;-77
2022/04/06 03:34:42;;;;;;;42.97;23.63;;;;;;;9.21;100.00;99215.66;5207557;28;20030;-77
2022/04/06 03:37:13;;;;;;;43.58;25.33;;;;;;;9.21;100.00;99213.06;5207211;28;20426;-77
2022/04/06 03:39:43;;;;;;;38.53;25.02;;;;;;;9.26;100.00;99207.56;5207730;28;20025;-78
2022/04/06 03:42:13;;;;;;;42.47;24.70;;;;;;;9.25;100.00;99218.94;5206271;28;20095;-79
2022/04/06 03:44:43;;;;;;;43.58;25.52;;;;;;;9.33;100.00;99206.34;5209022;28;20025;-78
2022/04/06 03:47:14;;;;;;;38.40;25.27;;;;;;;9.26;100.00;99204.97;5205918;28;20083;-77
2022/04/06 03:49:44;;;;;;;40.15;25.98;;;;;;;9.24;100.00;99212.03;5208152;28;20307;-78
2022/04/06 03:52:14;;;;;;;41.90;26.05;;;;;;;9.28;100.00;99203.16;5207308;28;20475;-76
2022/04/06 03:54:46;;;;;;;40.30;25.45;;;;;;;9.30;100.00;99201.31;5206865;28;20587;-77
2022/04/06 03:57:17;;;;;;;45.28;25.48;;;;;;;9.33;100.00;99203.75;5206560;28;20395;-77
2022/04/06 03:59:47;;;;;;;40.67;25.35;;;;;;;9.26;100.00;99204.97;5207931;28;20318;-78
2022/04/06 04:02:17;;;;;;;42.63;25.02;;;;;;;9.35;100.00;99202.72;5207500;28;20146;-78
2022/04/06 04:04:47;;;;;;;41.55;24.30;;;;;;;9.29;100.00;99200.44;5207781;28;20029;-77
2022/04/06 04:07:21;;;;;;;39.83;24.23;;;;;;;9.25;100.00;99208.50;5207490;28;20030;-78
2022/04/06 04:09:52;;;;;;;39.97;22.77;;;;;;;9.17;100.00;99200.25;5207353;28;20466;-78
2022/04/06 04:12:22;;;;;;;43.60;24.15;;;;;;;9.17;100.00;99200.25;5207165;28;20116;-78
2022/04/06 04:14:52;;;;;;;45.10;24.75;;;;;;;9.20;100.00;99200.94;5207737;28;20029;-78
2022/04/06 04:17:22;;;;;;;40.40;24.25;;;;;;;9.20;100.00;99197.47;5206541;28;20462;-78
2022/04/06 04:19:53;;;;;;;45.13;24.90;;;;;;;9.23;100.00;99203.38;5207045;28;20025;-78
2022/04/06 04:22:23;;;;;;;40.58;24.73;;;;;;;9.22;100.00;99203.44;5206378;28;20089;-77
2022/04/06 04:24:54;;;;;;;38.50;22.45;;;;;;;9.15;100.00;99202.09;5207376;28;20495;-77
2022/04/06 04:27:24;;;;;;;36.72;20.38;;;;;;;9.15;100.00;99204.69;5207442;28;20497;-78
2022/04/06 04:29:55;;;;;;;37.35;22.02;;;;;;;9.20;100.00;99210.50;5207236;28;20032;-77
2022/04/06 04:32:25;;;;;;;39.97;22.27;;;;;;;9.20;100.00;99210.50;5206155;28;20040;-77
2022/04/06 04:34:56;;;;;;;38.40;21.17;;;;;;;9.20;100.00;99207.91;5207153;28;20041;-78
2022/04/06 04:37:26;;;;;;;33.95;20.80;;;;;;;9.14;100.00;99208.22;5206760;28;20272;-78
2022/04/06 04:39:56;;;;;;;37.55;21.02;;;;;;;9.23;100.00;99205.13;5206903;28;20029;-77
2022/04/06 04:42:26;;;;;;;35.33;21.17;;;;;;;9.25;100.00;99206.75;5206342;28;20116;-78
2022/04/06 04:44:57;;;;;;;38.20;20.77;;;;;;;9.24;100.00;99212.88;5209037;28;20083;-77
2022/04/06 04:47:27;;;;;;;38.00;22.40;;;;;;;9.22;100.00;99208.66;5207288;28;20086;-78
2022/04/06 04:49:58;;;;;;;38.30;20.48;;;;;;;9.23;100.00;99202.53;5206601;28;20029;-78
2022/04/06 04:52:29;;;;;;;33.45;18.48;;;;;;;9.25;100.00;99195.47;5207505;28;20044;-77
2022/04/06 04:54:59;;;;;;;29.35;17.63;;;;;;;9.28;100.00;99196.16;5207390;28;20212;-77
2022/04/06 04:57:29;;;;;;;32.08;17.30;;;;;;;9.29;100.00;99199.63;5207271;28;20029;-77
2022/04/06 04:59:59;;;;;;;30.48;16.00;;;;;;;9.38;100.00;99196.50;5207928;28;20030;-78
2022/04/06 05:02:30;;;;;;;24.45;15.35;;;;;;;9.34;100.00;99195.00;5206980;28;20511;-77
2022/04/06 05:05:00;;;;;;;28.38;15.32;;;;;;;9.36;100.00;99191.41;5207720;28;20087;-77
2022/04/06 05:07:31;;;;;;;27.60;14.40;;;;;;;9.35;100.00;99191.47;5207995;28;20029;-78
2022/04/06 05:10:01;;;;;;;24.17;13.75;;;;;;;9.49;100.00;99200.22;5207194;28;20032;-77
2022/04/06 05:12:31;;;;;;;22.60;13.73;;;;;;;9.46;100.00;99208.22;5206867;28;20064;-77
2022/04/06 05:15:03;;;;;;;25.50;13.32;;;;;;;9.52;100.00;99199.25;5208611;28;20506;-78
2022/04/06 05:17:36;;;;;;;25.30;12.95;;;;;;;9.55;100.00;99199.94;5207494;28;20044;-77
2022/04/06 05:20:07;;;;;;;27.48;13.23;;;;;;;9.55;100.00;99201.69;5207626;28;20037;-77
2022/04/06 05:22:38;;;;;;;20.80;12.48;;;;;;;9.53;100.00;99206.13;5210659;28;20407;-78
2022/04/06 05:25:09;;;;;;;25.02;11.85;;;;;;;9.47;100.00;99207.28;5212043;28;20041;-77
2022/04/06 05:27:47;;;;;;;24.58;12.25;;;;;;;9.49;100.00;99207.22;5210369;28;20352;-78
2022/04/06 05:30:20;;;;;;;24.23;12.35;;;;;;;9.56;100.00;99203.34;5209015;28;20045;-78
2022/04/06 05:32:53;;;;;;;24.42;11.85;;;;;;;9.52;100.00;99215.72;5207671;28;20032;-79
2022/04/06 05:35:26;;;;;;;23.02;11.48;;;;;;;9.51;100.00;99206.22;5206791;28;20272;-77
2022/04/06 05:37:57;;;;;;;22.83;11.85;;;;;;;9.53;100.00;99208.75;5207314;28;20499;-78
2022/04/06 05:40:27;;;;;;;24.92;12.07;;;;;;;9.52;100.00;99204.47;5208223;28;20037;-77
2022/04/06 05:42:57;;;;;;;18.70;10.35;;;;;;;9.44;100.00;99202.25;5207553;28;20045;-79
2022/04/06 05:45:28;;;;;;;23.52;10.68;;;;;;;9.46;100.00;99207.41;5214015;28;20038;-79
2022/04/06 05:47:58;;;;;;;21.98;11.13;;;;;;;9.49;100.00;99213.28;5208485;28;20029;-79
2022/04/06 05:50:28;;;;;;;20.42;10.65;;;;;;;9.51;100.00;99215.81;5209031;28;20063;-79
2022/04/06 05:52:59;;;;;;;19.33;9.93;;;;;;;9.62;100.00;99216.09;5205693;28;20037;-78
2022/04/06 05:55:29;;;;;;;24.38;10.30;;;;;;;9.53;100.00;99213.97;5207924;28;20030;-78
2022/04/06 05:58:00;;;;;;;22.38;9.98;;;;;;;9.58;100.00;99211.94;5209410;28;20022;-79
2022/04/06 06:00:30;;;;;;;22.48;10.32;;;;;;;9.55;100.00;99225.16;5208185;28;20040;-79
2022/04/06 06:03:00;;;;;;;22.85;10.23;;;;;;;9.52;100.00;99222.72;5208679;28;20029;-79
2022/04/06 06:05:31;;;;;;;20.50;9.77;;;;;;;9.60;100.00;99221.38;5209079;28;20096;-78
2022/04/06 06:08:01;;;;;;;18.65;9.07;;;;;;;9.61;100.00;99214.38;5207856;28;20116;-79
2022/04/06 06:10:31;;;;;;;18.05;9.75;;;;;;;9.63;100.00;99226.44;5208731;28;20045;-78
2022/04/06 06:13:02;;;;;;;20.75;9.50;;;;;;;9.68;100.00;99223.59;5207511;28;20059;-79
2022/04/06 06:15:32;;;;;;;17.30;9.10;;;;;;;9.67;100.00;99224.50;5210413;28;20037;-79
2022/04/06 06:18:02;;;;;;;18.70;8.95;;;;;;;9.73;100.00;99214.59;5207584;28;20032;-79
2022/04/06 06:20:33;;;;;;;17.48;8.32;;;;;;;9.67;100.00;99214.06;5206696;28;20025;-78
2022/04/06 06:23:03;;;;;;;19.02;8.73;;;;;;;9.81;100.00;99211.56;5206195;28;20095;-79
2022/04/06 06:25:34;;;;;;;17.15;7.82;;;;;;;9.83;100.00;99209.72;5207053;28;20136;-78
2022/04/06 06:28:04;;;;;;;20.92;8.07;;;;;;;9.73;100.00;99211.97;5206256;28;20033;-79
2022/04/06 06:30:34;;;;;;;14.68;8.05;;;;;;;9.77;100.00;99210.88;5204897;28;20071;-79
2022/04/06 06:33:05;;;;;;;20.40;8.60;;;;;;;9.71;100.00;99205.16;5207099;28;20038;-79
2022/04/06 06:35:35;;;;;;;16.00;8.45;;;;;;;9.76;100.00;99208.34;5207743;28;20021;-78
2022/04/06 06:38:06;;;;;;;23.58;8.85;;;;;;;9.87;100.00;99208.63;5205433;28;20037;-79
2022/04/06 06:40:36;;;;;;;21.02;9.05;;;;;;;9.94;100.00;99204.72;5206602;28;20758;-79
2022/04/06 06:43:06;;;;;;;17.83;8.65;;;;;;;9.97;100.00;99199.38;5204206;28;20069;-79
2022/04/06 06:45:37;;;;;;;19.50;9.45;;;;;;;9.94;100.00;99205.59;5206307;28;20380;-78
2022/04/06 06:48:07;;;;;;;22.13;10.63;;;;;;;10.03;100.00;99205.09;5206662;28;20044;-78
2022/04/06 06:50:38;;;;;;;21.65;10.07;;;;;;;10.11;100.00;99202.94;5208058;28;20538;-78
2022/04/06 06:53:08;;;;;;;24.20;11.40;;;;;;;10.09;100.00;99201.31;5208524;28;20109;-79
2022/04/06 06:55:38;;;;;;;18.65;9.65;;;;;;;10.13;100.00;99214.13;5207882;28;20585;-79
2022/04/06 06:58:08;;;;;;;22.45;9.48;;;;;;;10.10;100.00;99208.22;5208937;28;20087;-79
2022/04/06 07:00:39;;;;;;;16.40;8.95;;;;;;;10.13;100.00;99208.91;5204478;28;20036;-78
2022/04/06 07:03:09;;;;;;;18.10;9.02;;;;;;;10.16;100.00;99208.72;5207360;28;20121;-79
2022/04/06 07:05:39;;;;;;;18.33;9.97;;;;;;;10.15;100.00;99214.06;5207910;28;20029;-79
2022/04/06 07:08:10;;;;;;;20.52;9.48;;;;;;;10.13;100.00;99203.69;5207704;28;20296;-79
2022/04/06 07:10:47;;;;;;;17.55;9.68;;;;;;;10.18;100.00;99219.09;5207945;28;20017;-79
2022/04/06 07:13:17;;;;;;;18.38;9.93;;;;;;;10.26;100.00;99215.13;5207076;28;20033;-79
2022/04/06 07:15:48;;;;;;;20.52;10.73;;;;;;;10.23;100.00;99211.84;5208859;28;20029;-79
2022/04/06 07:18:20;;;;;;;20.42;9.90;;;;;;;10.20;100.00;99212.00;5206846;28;20033;-79
2022/04/06 07:20:50;;;;;;;19.85;10.70;;;;;;;10.10;100.00;99205.59;5212718;28;20026;-79
2022/04/06 07:23:20;;;;;;;19.45;9.95;;;;;;;10.17;100.00;99206.97;5213253;28;20064;-79
2022/04/06 07:25:51;;;;;;;24.08;10.32;;;;;;;10.19;100.00;99199.88;5213613;28;20049;-79
2022/04/06 07:28:21;;;;;;;20.33;11.43;;;;;;;10.33;100.00;99195.56;5214166;28;20093;-79
2022/04/06 07:30:51;;;;;;;19.27;11.07;;;;;;;10.42;100.00;99199.44;5212858;28;20022;-79
2022/04/06 07:33:23;;;;;;;21.42;10.82;;;;;;;10.50;100.00;99205.06;5196272;28;20094;-79
2022/04/06 07:35:53;;;;;;;19.00;11.52;;;;;;;10.64;100.00;99189.41;5213235;28;20030;-79
2022/04/06 07:38:23;;;;;;;22.30;11.83;;;;;;;10.73;100.00;99186.28;5213542;28;20036;-79
2022/04/06 07:40:54;;;;;;;21.60;11.05;;;;;;;10.84;100.00;99186.53;5212170;28;20292;-80
2022/04/06 07:43:25;;;;;;;19.38;11.55;;;;;;;10.96;100.00;99193.63;5213574;28;20068;-79
2022/04/06 07:45:55;;;;;;;19.15;10.57;;;;;;;10.89;100.00;99194.91;5211771;28;20036;-79
2022/04/06 07:48:27;;;;;;;21.45;11.20;;;;;;;10.90;100.00;99175.69;5209704;28;20037;-79
2022/04/06 07:50:58;;;;;;;20.25;10.60;;;;;;;11.00;100.00;99182.91;5211502;28;20025;-80
2022/04/06 07:53:28;;;;;;;17.90;10.10;;;;;;;11.20;100.00;99187.78;5211991;28;20603;-79
2022/04/06 07:55:58;;;;;;;21.50;10.52;;;;;;;11.55;100.00;99179.47;5207463;28;20071;-79
2022/04/06 07:58:29;;;;;;;17.10;9.50;;;;;;;12.21;97.13;99169.16;5213083;28;20021;-79
2022/04/06 08:01:01;;;;;;;15.23;9.27;;;;;;;12.83;93.38;99169.34;5208693;28;20025;-79
2022/04/06 08:03:31;;;;;;;15.27;8.32;;;;;;;12.94;89.98;99172.13;5213738;28;20029;-79
2022/04/06 08:06:02;;;;;;;16.15;7.50;;;;;;;13.06;88.52;99173.91;5212086;28;20044;-79
2022/04/06 08:08:33;;;;;;;14.93;7.10;;;;;;;13.41;86.52;99178.41;5213542;28;20044;-79
2022/04/06 08:11:05;;;;;;;12.82;6.68;;;;;;;13.80;85.09;99173.03;5212624;28;20096;-79
2022/04/06 08:13:35;;;;;;;14.90;6.80;;;;;;;13.79;85.80;99173.97;5209595;28;20036;-79
2022/04/06 08:16:06;;;;;;;12.93;5.93;;;;;;;13.24;85.67;99170.03;5212041;28;20029;-79
2022/04/06 08:18:36;;;;;;;10.27;5.63;;;;;;;13.37;84.06;99170.88;5204753;28;20044;-79
2022/04/06 08:21:06;;;;;;;10.13;5.22;;;;;;;14.50;81.26;99160.88;5210112;28;20105;-79
2022/04/06 08:23:37;;;;;;;7.78;4.78;;;;;;;14.67;79.25;99163.09;5213086;28;20060;-80
2022/04/06 08:26:07;;;;;;;8.03;4.20;;;;;;;14.47;80.15;99154.09;5212451;28;20033;-79
2022/04/06 08:28:37;;;;;;;9.82;4.47;;;;;;;14.02;82.23;99156.53;5212075;28;20300;-79
2022/04/06 08:31:08;;;;;;;11.27;4.20;;;;;;;14.44;79.44;99156.09;5212105;28;20110;-79
2022/04/06 08:33:38;;;;;;;11.27;3.67;;;;;;;14.48;78.09;99149.66;5212547;28;20018;-79
2022/04/06 08:36:09;;;;;;;7.28;3.70;;;;;;;14.12;78.50;99154.94;5212185;28;20086;-79
2022/04/06 08:38:39;;;;;;;5.80;3.25;;;;;;;13.68;79.28;99162.53;5210998;28;20031;-79
2022/04/06 08:41:09;;;;;;;12.35;3.55;;;;;;;12.87;81.56;99157.72;5212677;28;20033;-79
2022/04/06 08:43:41;;;;;;;6.35;3.30;;;;;;;13.00;81.25;99176.94;5210840;28;20033;-79
2022/04/06 08:46:12;;;;;;;7.22;3.05;;;;;;;12.90;81.49;99168.81;5213294;28;20089;-79
2022/04/06 08:48:43;;;;;;;9.95;3.50;;;;;;;13.03;82.64;99176.75;5208373;28;20061;-79
2022/04/06 08:51:16;;;;;;;9.25;3.00;;;;;;;12.50;83.06;99168.94;5211819;28;20064;-79
2022/04/06 08:53:47;;;;;;;8.23;3.45;;;;;;;11.94;83.35;99171.78;5213379;28;20037;-79
2022/04/06 08:56:17;;;;;;;6.70;3.15;;;;;;;11.87;82.81;99165.25;5211822;28;20060;-79
2022/04/06 08:58:48;;;;;;;8.43;3.03;;;;;;;11.62;84.14;99165.09;5214439;28;20029;-79
2022/04/06 09:01:21;;;;;;;6.22;3.03;;;;;;;11.66;85.65;99165.75;5208452;28;20068;-79
2022/04/06 09:03:51;;;;;;;7.50;3.08;;;;;;;11.54;85.56;99156.88;5208829;28;20033;-79
2022/04/06 09:06:21;;;;;;;9.18;3.17;;;;;;;11.41;86.02;99161.16;5208852;28;20490;-79
2022/04/06 09:08:52;;;;;;;6.43;3.38;;;;;;;11.37;85.96;99180.59;5208948;28;20028;-79
2022/04/06 09:11:22;;;;;;;5.82;2.80;;;;;;;11.47;85.16;99162.56;5209281;28;20537;-79
2022/04/06 09:14:00;;;;;;;7.72;3.53;;;;;;;11.31;85.53;99164.44;5211133;28;20064;-80
2022/04/06 09:16:32;;;;;;;6.63;2.78;;;;;;;11.42;85.86;99159.41;5207491;28;20052;-80
2022/04/06 09:19:16;;;;;;;4.88;3.08;;;;;;;11.58;85.78;99163.63;5211774;28;20037;-80
2022/04/06 09:21:49;;;;;;;7.75;3.42;;;;;;;11.53;85.66;99156.94;5209109;28;20029;-79
2022/04/06 09:24:20;;;;;;;7.60;3.20;;;;;;;11.50;86.35;99165.84;5216286;28;20033;-79
2022/04/06 09:26:56;;;;;;;5.80;2.75;;;;;;;11.46;85.73;99166.13;5215377;28;20032;-79
2022/04/06 09:29:27;;;;;;;7.15;2.90;;;;;;;11.48;83.67;99166.88;5214647;28;20033;-79
2022/04/06 09:32:08;;;;;;;11.90;3.17;;;;;;;11.33;84.08;99173.03;5213866;28;20025;-79
2022/04/06 09:34:38;;;;;;;5.50;2.67;;;;;;;11.31;85.75;99183.56;5215157;28;20061;-79
2022/04/06 09:37:29;;;;;;;6.22;2.78;;;;;;;11.18;86.05;99174.81;5212855;28;20029;-78
2022/04/06 09:40:09;;;;;;;8.55;2.85;;;;;;;11.33;85.47;99183.50;5207474;28;20049;-79
2022/04/06 09:42:50;;;;;;;7.53;2.45;;;;;;;11.29;84.11;99180.22;5214771;28;20478;-79
2022/04/06 09:48:19;;;;;;;6.45;2.70;;;;;;;11.20;85.29;99178.16;5214737;28;20128;-79
2022/04/06 09:50:56;;;;;;;7.45;2.53;;;;;;;11.20;84.44;99172.94;5213622;28;20022;-79
2022/04/06 09:53:30;;;;;;;7.97;2.35;;;;;;;11.42;84.57;99162.84;5214716;28;20033;-79
2022/04/06 09:56:02;;;;;;;6.32;2.50;;;;;;;11.58;84.31;99158.38;5214456;28;20017;-79
2022/04/06 09:58:32;;;;;;;7.50;2.78;;;;;;;11.53;82.45;99155.19;5216979;28;20037;-79
2022/04/06 10:01:03;;;;;;;6.95;2.30;;;;;;;11.56;82.94;99155.03;5213609;28;20206;-79
2022/04/06 10:03:37;;;;;;;7.70;2.45;;;;;;;11.75;82.38;99155.56;5213232;28;20040;-79
2022/04/06 10:06:09;;;;;;;7.40;2.30;;;;;;;11.55;81.86;99163.78;5212548;28;20033;-79
2022/04/06 10:08:39;;;;;;;5.32;2.30;;;;;;;11.74;82.42;99159.09;5212244;28;20113;-79
2022/04/06 10:11:11;;;;;;;6.25;2.28;;;;;;;11.61;82.25;99154.75;5212003;28;20064;-79
2022/04/06 10:13:42;;;;;;;5.07;2.28;;;;;;;11.66;82.39;99155.28;5212048;28;20022;-79
2022/04/06 10:16:13;;;;;;;5.75;2.20;;;;;;;11.59;81.91;99160.06;5210001;28;20044;-79
2022/04/06 10:18:44;;;;;;;7.40;2.42;;;;;;;11.70;83.04;99159.38;5210337;28;20204;-79
2022/04/06 10:21:26;;;;;;;7.40;2.35;;;;;;;11.57;83.64;99161.94;5209210;28;20037;-79
2022/04/06 10:23:57;;;;;;;6.75;2.63;;;;;;;11.74;82.79;99156.50;5210382;28;20029;-79
2022/04/06 10:26:48;;;;;;;6.20;2.27;;;;;;;11.73;82.26;99153.94;5209815;28;20033;-79
2022/04/06 10:29:18;;;;;;;8.18;2.50;;;;;;;11.72;82.74;99150.50;5207989;28;20268;-79
2022/04/06 10:31:49;;;;;;;9.70;3.25;;;;;;;11.67;81.95;99154.34;5210278;28;20548;-79
2022/04/06 10:34:36;;;;;;;8.32;2.70;;;;;;;11.75;82.71;99152.94;5209696;28;20033;-79
2022/04/06 10:37:11;;;;;;;4.88;2.00;;;;;;;11.45;82.13;99146.94;5209287;28;20029;-79
2022/04/06 10:39:47;;;;;;;4.70;1.60;;;;;;;11.56;83.98;99147.16;5207477;28;20044;-79
2022/04/06 10:42:36;;;;;;;5.22;1.60;;;;;;;11.59;82.78;99139.13;5204231;28;20033;-79
2022/04/06 10:45:29;;;;;;;5.20;1.63;;;;;;;11.60;83.73;99132.13;5209959;28;20120;-79
2022/04/06 10:48:16;;;;;;;7.13;1.98;;;;;;;11.46;84.17;99135.56;5205527;28;20041;-79
2022/04/06 10:50:48;;;;;;;3.00;1.60;;;;;;;11.47;83.82;99137.22;5205002;28;20053;-79
2022/04/06 10:53:18;;;;;;;7.88;2.17;;;;;;;11.43;83.65;99137.53;5209367;28;20036;-79
2022/04/06 10:56:02;;;;;;;5.03;1.83;;;;;;;11.36;83.43;99134.47;5210085;28;20029;-79
2022/04/06 10:58:57;;;;;;;4.20;1.70;;;;;;;11.44;85.01;99126.97;5210496;28;20040;-79
2022/04/06 11:01:33;;;;;;;6.72;1.92;;;;;;;11.42;84.46;99123.59;5231740;23;20052;-79
2022/04/06 11:04:15;;;;;;;;;;;;;;;11.59;83.31;99118.19;5213039;28;20029;-79
2022/04/06 11:07:08;;;;;;;5.90;1.90;;;;;;;11.63;83.16;99114.44;5206296;28;19920;-79
2022/04/06 11:12:28;;;;;;;5.57;1.83;;;;;;;11.64;83.43;99104.84;5217206;28;20040;-79
2022/04/06 11:14:58;;;;;;;5.32;1.98;;;;;;;11.58;82.62;99100.00;5221527;28;20025;-79
2022/04/06 11:17:36;;;;;;;3.57;1.50;;;;;;;11.59;83.58;99107.72;5223479;28;20174;-79
2022/04/06 11:20:12;;;;;;;4.40;1.95;;;;;;;11.56;83.96;99115.78;5215669;28;20346;-79
2022/04/06 11:22:43;;;;;;;5.80;2.10;;;;;;;11.54;83.24;99115.00;5221389;23;20331;-78
2022/04/06 11:25:15;;;;;;;5.40;3.15;;;;;;;11.56;83.64;99115.78;5199563;28;20477;-78
2022/04/06 11:27:47;;;;;;;8.27;2.63;;;;;;;11.55;84.40;99124.53;5199030;28;20033;-78
2022/04/06 11:30:19;;;;;;;5.38;2.00;;;;;;;11.56;84.18;99115.78;5200011;28;20048;-78
2022/04/06 11:32:55;;;;;;;8.93;2.22;;;;;;;11.58;83.99;99116.50;5190909;28;20487;-78
2022/04/06 11:35:30;;;;;;;6.90;2.42;;;;;;;11.57;83.88;99117.44;5189488;28;20034;-78
2022/04/06 11:38:03;;;;;;;5.53;2.30;;;;;;;11.51;85.34;99127.44;5189535;28;20125;-78
2022/04/06 11:40:39;;;;;;;5.47;2.35;;;;;;;11.51;85.15;99117.81;5191526;28;20068;-78
2022/04/06 11:43:09;;;;;;;;;;;;;;;11.43;85.08;99120.06;5189797;28;20045;-78
2022/04/06 11:45:41;;;;;;;6.23;2.50;;;;;;;11.50;85.49;99124.00;5195239;28;20279;-78
2022/04/06 11:48:12;;;;;;;5.90;2.70;;;;;;;11.48;85.69;99117.97;5184120;28;20038;-78
2022/04/06 11:50:44;;;;;;;7.88;2.63;;;;;;;11.48;85.21;99120.59;5185936;28;20018;-78
2022/04/06 11:53:17;;;;;;;7.72;2.83;;;;;;;11.46;84.80;99117.25;5193507;28;20029;-78